Time;durP1;ratioP1;P1;durP2;ratioP2;P2;SDS_P1;SDS_P2;PMS_P1;PMS_P2;Temp;Humidity;BMP_temperature;BMP_pressure;BME280_temperature;BME280_humidity;BME280_pressure;Samples;Min_cycle;Max_cycle;Signal;HPM_P1;HPM_P2
2023/03/25 00:00:20;;;;;;;7.50;2.50;;;9.10;99.90;;;;;;4989221;28;20041;-50
2023/03/25 00:02:48;;;;;;;7.43;2.80;;;9.20;99.90;;;;;;5006442;28;20042;-49
2023/03/25 00:05:15;;;;;;;6.03;2.78;;;9.20;99.90;;;;;;5007182;28;20403;-49
2023/03/25 00:07:47;;;;;;;6.85;2.63;;;9.20;99.90;;;;;;5005576;28;20038;-49
2023/03/25 00:10:13;;;;;;;7.53;2.97;;;9.20;99.90;;;;;;5005538;28;20060;-49
2023/03/25 00:12:39;;;;;;;6.57;3.17;;;9.20;99.90;;;;;;5006760;28;20033;-49
2023/03/25 00:15:09;;;;;;;6.55;3.00;;;9.20;99.90;;;;;;5006247;28;20030;-50
2023/03/25 00:17:37;;;;;;;7.50;3.40;;;9.20;99.90;;;;;;5008060;28;20542;-50
2023/03/25 00:20:10;;;;;;;7.20;3.72;;;9.20;99.90;;;;;;5011650;28;20053;-49
2023/03/25 00:22:43;;;;;;;8.88;3.72;;;9.20;99.90;;;;;;5027230;28;20041;-49
2023/03/25 00:25:19;;;;;;;6.45;3.50;;;9.20;99.90;;;;;;5007713;28;20065;-50
2023/03/25 00:27:46;;;;;;;7.30;3.42;;;9.20;99.90;;;;;;4999554;28;20117;-49
2023/03/25 00:30:13;;;;;;;5.57;3.07;;;9.30;99.90;;;;;;4992949;28;20523;-49
2023/03/25 00:32:39;;;;;;;6.40;3.75;;;9.30;99.90;;;;;;5003745;28;20053;-49
2023/03/25 00:35:07;;;;;;;7.07;3.70;;;9.20;99.90;;;;;;5011613;28;20056;-49
2023/03/25 00:37:33;;;;;;;;;;;9.30;99.90;;;;;;5013071;28;20120;-49
2023/03/25 00:39:58;;;;;;;6.20;4.10;;;9.20;99.90;;;;;;5012549;28;20016;-48
2023/03/25 00:42:28;;;;;;;9.07;4.10;;;9.20;99.90;;;;;;5010393;28;20049;-49
2023/03/25 00:44:54;;;;;;;7.97;3.72;;;9.20;99.90;;;;;;5004822;28;20108;-49
2023/03/25 00:47:20;;;;;;;4.40;3.67;;;9.20;99.90;;;;;;4988521;28;20447;-49
2023/03/25 00:49:47;;;;;;;8.05;3.55;;;9.20;99.90;;;;;;5006764;28;20049;-49
2023/03/25 00:52:14;;;;;;;8.77;3.47;;;9.20;99.90;;;;;;5006218;28;20448;-49
2023/03/25 00:54:40;;;;;;;6.57;3.50;;;9.20;99.90;;;;;;5006293;28;20046;-52
2023/03/25 00:57:06;;;;;;;8.00;3.75;;;9.20;99.90;;;;;;5006341;28;20038;-52
2023/03/25 00:59:31;;;;;;;8.82;3.30;;;9.20;99.90;;;;;;5006488;28;20137;-52
2023/03/25 01:01:57;;;;;;;10.05;3.42;;;9.10;99.90;;;;;;5005094;28;20391;-51
2023/03/25 01:04:23;;;;;;;9.60;3.33;;;9.10;99.90;;;;;;5005828;28;20089;-51
2023/03/25 01:06:50;;;;;;;7.85;3.00;;;9.10;99.90;;;;;;5006091;28;20037;-51
2023/03/25 01:09:18;;;;;;;6.73;2.90;;;9.10;99.90;;;;;;5005803;28;20657;-51
2023/03/25 01:11:45;;;;;;;7.97;2.90;;;9.10;99.90;;;;;;5007789;28;20049;-54
2023/03/25 01:14:17;;;;;;;10.10;3.10;;;9.10;99.90;;;;;;5006284;28;20046;-49
2023/03/25 01:16:43;;;;;;;6.65;2.50;;;9.20;99.90;;;;;;5006077;28;20042;-49
2023/03/25 01:19:10;;;;;;;6.47;2.88;;;9.20;99.90;;;;;;5006761;28;20116;-50
2023/03/25 01:21:35;;;;;;;8.50;2.70;;;9.10;99.90;;;;;;5018933;28;20038;-49
2023/03/25 01:24:02;;;;;;;10.43;3.25;;;9.10;99.90;;;;;;5022845;28;20034;-49
2023/03/25 01:26:29;;;;;;;7.82;2.78;;;9.10;99.90;;;;;;5012377;28;20099;-49
2023/03/25 01:28:54;;;;;;;9.20;2.60;;;9.10;99.90;;;;;;5006394;28;20070;-50
2023/03/25 01:31:21;;;;;;;8.57;2.50;;;9.10;99.90;;;;;;4986000;28;20448;-50
2023/03/25 01:33:48;;;;;;;8.02;2.63;;;9.10;99.90;;;;;;5005259;28;20037;-53
2023/03/25 01:36:14;;;;;;;13.15;2.83;;;9.10;99.90;;;;;;4986365;28;21313;-49
2023/03/25 01:38:40;;;;;;;12.18;2.70;;;9.10;99.90;;;;;;5007649;28;20491;-49
2023/03/25 01:41:07;;;;;;;15.82;3.15;;;9.10;99.90;;;;;;5011402;28;20042;-53
2023/03/25 01:43:33;;;;;;;12.98;2.42;;;9.10;99.90;;;;;;4997130;28;20514;-50
2023/03/25 01:45:59;;;;;;;8.50;2.95;;;9.10;99.90;;;;;;5010845;28;20041;-49
2023/03/25 01:48:36;;;;;;;8.95;2.55;;;9.00;99.90;;;;;;5015187;28;20103;-49
2023/03/25 01:51:09;;;;;;;9.70;2.70;;;9.00;99.90;;;;;;5008122;28;20053;-51
2023/03/25 01:53:35;;;;;;;8.25;2.25;;;8.90;99.90;;;;;;5008953;28;20436;-51
2023/03/25 01:56:04;;;;;;;11.23;2.90;;;8.90;99.90;;;;;;5009786;28;20076;-50
2023/03/25 01:58:31;;;;;;;13.13;3.22;;;8.90;99.90;;;;;;5008219;28;20443;-50
2023/03/25 02:00:56;;;;;;;8.77;2.80;;;8.80;99.90;;;;;;5008798;28;21675;-51
2023/03/25 02:03:23;;;;;;;16.05;3.28;;;8.80;99.90;;;;;;5009129;28;20147;-51
2023/03/25 02:05:55;;;;;;;14.35;2.95;;;8.70;99.90;;;;;;5008712;28;20042;-51
2023/03/25 02:08:22;;;;;;;13.95;3.10;;;8.70;99.90;;;;;;5007968;28;20042;-50
2023/03/25 02:10:49;;;;;;;16.75;3.67;;;8.60;99.90;;;;;;5008510;28;20049;-49
2023/03/25 02:13:15;;;;;;;13.63;3.45;;;8.60;99.90;;;;;;5007788;28;20416;-51
2023/03/25 02:15:50;;;;;;;12.57;3.33;;;8.50;99.90;;;;;;5004843;28;20428;-51
2023/03/25 02:18:43;;;;;;;15.40;3.55;;;8.50;99.90;;;;;;5009940;28;20074;-50
2023/03/25 02:21:29;;;;;;;12.77;3.05;;;8.50;99.90;;;;;;5015668;28;20051;-50
2023/03/25 02:24:03;;;;;;;14.82;2.90;;;8.40;99.90;;;;;;5033061;28;20502;-52
2023/03/25 02:26:40;;;;;;;12.57;3.30;;;8.40;99.90;;;;;;5003770;28;20096;-50
2023/03/25 02:29:09;;;;;;;11.55;2.92;;;8.40;99.90;;;;;;4995473;28;20046;-51
2023/03/25 02:32:09;;;;;;;12.52;3.00;;;8.40;99.90;;;;;;5000334;28;20522;-49
2023/03/25 02:35:03;;;;;;;11.75;2.90;;;8.40;99.90;;;;;;4995596;28;20352;-50
2023/03/25 02:37:57;;;;;;;17.35;3.22;;;8.40;99.90;;;;;;5002821;28;20069;-50
2023/03/25 02:40:32;;;;;;;20.95;3.53;;;8.40;99.90;;;;;;5012387;28;20115;-52
2023/03/25 02:43:17;;;;;;;18.33;4.00;;;8.40;99.90;;;;;;5010794;28;20041;-50
2023/03/25 02:45:51;;;;;;;11.60;3.28;;;8.30;99.90;;;;;;5007429;28;20463;-51
2023/03/25 02:48:42;;;;;;;13.88;3.10;;;8.40;99.90;;;;;;5011772;28;20053;-51
2023/03/25 02:51:16;;;;;;;11.90;2.85;;;8.30;99.90;;;;;;4989122;28;20042;-52
2023/03/25 02:53:45;;;;;;;15.30;3.22;;;8.30;99.90;;;;;;4999287;28;20048;-51
2023/03/25 02:56:15;;;;;;;11.73;2.80;;;8.30;99.90;;;;;;5008947;28;20046;-55
2023/03/25 02:58:43;;;;;;;17.27;3.20;;;8.20;99.90;;;;;;5012674;28;20054;-50
2023/03/25 03:01:08;;;;;;;13.88;3.25;;;8.20;99.90;;;;;;5008808;28;20084;-50
2023/03/25 03:03:35;;;;;;;12.63;2.90;;;8.20;99.90;;;;;;5012434;28;20081;-51
2023/03/25 03:06:04;;;;;;;15.65;3.58;;;8.20;99.90;;;;;;4995059;28;20483;-50
2023/03/25 03:08:47;;;;;;;14.23;3.03;;;8.20;99.90;;;;;;5010142;28;20077;-53
2023/03/25 03:11:37;;;;;;;13.27;3.05;;;8.20;99.90;;;;;;5011534;28;20058;-51
2023/03/25 03:14:24;;;;;;;15.35;3.60;;;8.20;99.90;;;;;;5011358;28;20050;-50
2023/03/25 03:17:02;;;;;;;17.27;3.65;;;8.20;99.90;;;;;;5007624;28;20392;-54
2023/03/25 03:19:55;;;;;;;12.43;2.67;;;8.10;99.90;;;;;;5007667;28;20120;-51
2023/03/25 03:22:41;;;;;;;15.20;3.33;;;8.10;99.90;;;;;;4990019;28;20053;-51
2023/03/25 03:25:26;;;;;;;14.75;3.10;;;8.10;99.90;;;;;;4990142;28;20123;-52
2023/03/25 03:28:15;;;;;;;13.20;3.45;;;8.10;99.90;;;;;;5007322;28;20065;-52
2023/03/25 03:30:45;;;;;;;11.93;3.00;;;8.10;99.90;;;;;;5007051;28;20387;-51
2023/03/25 03:33:40;;;;;;;8.93;2.95;;;8.10;99.90;;;;;;4988592;28;20137;-50
2023/03/25 03:36:09;;;;;;;12.25;3.38;;;8.10;99.90;;;;;;5006153;28;20050;-52
2023/03/25 03:38:48;;;;;;;9.45;3.30;;;8.20;99.90;;;;;;4989150;28;20054;-50
2023/03/25 03:41:19;;;;;;;12.82;3.00;;;8.20;99.90;;;;;;5006316;28;20141;-54
2023/03/25 03:43:54;;;;;;;12.20;2.95;;;8.20;99.90;;;;;;5012762;28;20510;-50
2023/03/25 03:46:34;;;;;;;14.32;3.20;;;8.20;99.90;;;;;;5013379;28;20060;-50
2023/03/25 03:49:03;;;;;;;11.30;2.92;;;8.20;99.90;;;;;;5010904;28;20546;-50
2023/03/25 03:51:35;;;;;;;13.45;2.92;;;8.20;99.90;;;;;;5005309;28;20406;-50
2023/03/25 03:54:22;;;;;;;14.27;2.90;;;8.20;99.90;;;;;;5006980;28;20116;-50
2023/03/25 03:57:01;;;;;;;10.48;3.10;;;8.30;99.90;;;;;;5004100;28;20056;-50
2023/03/25 03:59:56;;;;;;;9.68;3.05;;;8.20;99.90;;;;;;5013232;28;20057;-50
2023/03/25 04:02:22;;;;;;;10.13;2.67;;;8.30;99.90;;;;;;4983307;28;20416;-50
2023/03/25 04:04:49;;;;;;;15.90;3.25;;;8.20;99.90;;;;;;5013163;28;20092;-51
2023/03/25 04:07:18;;;;;;;12.48;3.03;;;8.30;99.90;;;;;;4994190;28;20061;-51
2023/03/25 04:09:45;;;;;;;14.98;3.10;;;8.30;99.90;;;;;;5012035;28;20050;-50
2023/03/25 04:12:16;;;;;;;13.50;3.50;;;8.20;99.90;;;;;;5014908;28;20419;-50
2023/03/25 04:14:43;;;;;;;13.80;3.08;;;8.20;99.90;;;;;;5011022;28;20399;-50
2023/03/25 04:17:09;;;;;;;10.20;3.15;;;8.20;99.90;;;;;;4986030;28;20034;-50
2023/03/25 04:19:35;;;;;;;11.50;3.35;;;8.20;99.90;;;;;;5006880;28;20033;-50
2023/03/25 04:22:02;;;;;;;11.40;3.10;;;8.20;99.90;;;;;;5004879;28;20073;-51
2023/03/25 04:24:31;;;;;;;13.40;3.10;;;8.10;99.90;;;;;;5006305;28;20049;-50
2023/03/25 04:27:03;;;;;;;11.68;3.20;;;8.10;99.90;;;;;;5005769;28;20057;-49
2023/03/25 04:29:32;;;;;;;12.52;3.83;;;8.10;99.90;;;;;;5006909;28;20042;-55
2023/03/25 04:31:59;;;;;;;12.70;3.40;;;8.10;99.90;;;;;;4986983;28;20065;-50
2023/03/25 04:34:26;;;;;;;12.05;3.40;;;8.10;99.90;;;;;;5006232;28;20135;-50
2023/03/25 04:36:52;;;;;;;14.57;3.75;;;8.10;99.90;;;;;;5004916;28;20038;-53
2023/03/25 04:39:22;;;;;;;10.75;4.20;;;8.10;99.90;;;;;;5006567;28;20041;-52
2023/03/25 04:41:49;;;;;;;15.60;3.95;;;8.10;99.90;;;;;;5004854;28;20049;-49
2023/03/25 04:44:20;;;;;;;14.95;4.15;;;8.10;99.90;;;;;;5005517;28;20038;-51
2023/03/25 04:46:46;;;;;;;13.77;4.22;;;8.10;99.90;;;;;;5007248;28;20038;-50
2023/03/25 04:49:20;;;;;;;11.38;4.40;;;8.10;99.90;;;;;;5006981;28;20099;-50
2023/03/25 04:51:50;;;;;;;15.93;4.53;;;8.10;99.90;;;;;;5004945;28;20471;-50
2023/03/25 04:54:20;;;;;;;10.70;3.97;;;8.10;99.90;;;;;;5005398;28;20042;-50
2023/03/25 04:56:48;;;;;;;13.98;4.88;;;8.10;99.90;;;;;;5003632;28;20060;-50
2023/03/25 04:59:14;;;;;;;;;;;8.10;99.90;;;;;;5009903;28;20490;-50
2023/03/25 05:01:41;;;;;;;13.65;4.95;;;8.10;99.90;;;;;;5008110;28;20251;-50
2023/03/25 05:04:11;;;;;;;13.82;4.85;;;8.10;99.90;;;;;;5006643;28;20497;-50
2023/03/25 05:06:42;;;;;;;12.48;5.03;;;8.00;99.90;;;;;;5002159;28;20125;-49
2023/03/25 05:09:16;;;;;;;18.23;5.43;;;8.00;99.90;;;;;;5007109;28;20044;-50
2023/03/25 05:11:42;;;;;;;8.52;4.72;;;8.00;99.90;;;;;;5009392;28;20061;-49
2023/03/25 05:14:09;;;;;;;10.30;4.93;;;7.90;99.90;;;;;;5010762;28;20077;-50
2023/03/25 05:16:35;;;;;;;11.00;5.60;;;8.00;99.90;;;;;;5015121;28;20034;-50
2023/03/25 05:19:02;;;;;;;10.70;4.95;;;8.00;99.90;;;;;;5016101;28;20111;-50
2023/03/25 05:21:28;;;;;;;14.32;5.80;;;8.00;99.90;;;;;;5014265;28;20116;-49
2023/03/25 05:23:54;;;;;;;12.23;5.65;;;8.00;99.90;;;;;;5012828;28;20471;-51
2023/03/25 05:26:20;;;;;;;12.32;5.85;;;8.10;99.90;;;;;;5015152;28;20049;-50
2023/03/25 05:28:50;;;;;;;14.95;5.78;;;8.10;99.90;;;;;;5012702;28;20038;-54
2023/03/25 05:31:16;;;;;;;16.08;6.20;;;8.10;99.90;;;;;;5014395;28;20034;-50
2023/03/25 05:33:42;;;;;;;12.23;5.95;;;8.10;99.90;;;;;;4992482;28;20115;-49
2023/03/25 05:36:09;;;;;;;12.73;5.70;;;8.10;99.90;;;;;;5014255;28;20057;-49
2023/03/25 05:38:36;;;;;;;13.85;5.40;;;8.20;99.90;;;;;;5014894;28;20038;-50
2023/03/25 05:41:01;;;;;;;14.18;5.80;;;8.20;99.90;;;;;;5006001;28;20041;-51
2023/03/25 05:43:27;;;;;;;11.43;5.07;;;8.30;99.90;;;;;;5014289;28;20111;-53
2023/03/25 05:45:52;;;;;;;9.95;4.38;;;8.40;99.90;;;;;;5015134;28;20550;-50
2023/03/25 05:48:18;;;;;;;10.07;3.92;;;8.40;99.90;;;;;;5015147;28;20037;-50
2023/03/25 05:50:44;;;;;;;9.80;4.25;;;8.40;99.90;;;;;;5014398;28;20041;-50
2023/03/25 05:53:11;;;;;;;12.65;4.60;;;8.30;99.90;;;;;;5014542;28;20100;-53
2023/03/25 05:55:37;;;;;;;9.45;3.90;;;8.30;99.90;;;;;;5013799;28;20045;-51
2023/03/25 05:58:03;;;;;;;9.82;3.20;;;8.20;99.90;;;;;;5014994;28;20124;-50
2023/03/25 06:00:29;;;;;;;8.45;2.80;;;8.20;99.90;;;;;;5013909;28;20092;-50
2023/03/25 06:02:57;;;;;;;7.47;2.10;;;8.20;99.90;;;;;;5006070;28;20104;-50
2023/03/25 06:05:24;;;;;;;5.70;1.90;;;8.10;99.90;;;;;;5010890;28;20052;-49
2023/03/25 06:07:54;;;;;;;4.78;1.42;;;8.10;99.90;;;;;;5000543;28;20098;-51
2023/03/25 06:10:21;;;;;;;6.25;1.35;;;8.10;99.90;;;;;;5011923;28;20058;-50
2023/03/25 06:12:47;;;;;;;4.00;1.52;;;8.10;99.90;;;;;;5007158;28;20042;-50
2023/03/25 06:15:27;;;;;;;6.05;1.42;;;8.00;99.90;;;;;;5008484;28;20514;-50
2023/03/25 06:17:54;;;;;;;5.78;1.60;;;8.00;99.90;;;;;;5008729;28;20038;-52
2023/03/25 06:20:20;;;;;;;4.97;1.47;;;8.00;99.90;;;;;;5009270;28;20034;-51
2023/03/25 06:22:46;;;;;;;4.00;1.50;;;7.90;99.90;;;;;;5006772;28;20053;-50
2023/03/25 06:25:16;;;;;;;5.00;1.90;;;7.90;99.90;;;;;;5007633;28;20124;-52
2023/03/25 06:27:42;;;;;;;4.80;2.53;;;7.90;99.90;;;;;;5006849;28;20132;-50
2023/03/25 06:30:14;;;;;;;7.88;1.75;;;7.90;99.90;;;;;;5007222;28;20077;-51
2023/03/25 06:32:40;;;;;;;7.45;1.63;;;7.90;99.90;;;;;;5007113;28;20128;-52
2023/03/25 06:35:08;;;;;;;6.18;1.77;;;7.90;99.90;;;;;;5008490;28;20173;-50
2023/03/25 06:37:35;;;;;;;7.40;1.92;;;7.90;99.90;;;;;;5004364;28;20100;-50
2023/03/25 06:40:01;;;;;;;10.77;2.17;;;7.90;99.90;;;;;;5007753;28;20038;-51
2023/03/25 06:42:27;;;;;;;9.65;2.15;;;7.90;99.90;;;;;;5005008;28;20517;-51
2023/03/25 06:44:53;;;;;;;9.75;2.20;;;7.90;99.90;;;;;;5008479;28;20034;-51
2023/03/25 06:47:19;;;;;;;6.55;2.10;;;7.90;99.90;;;;;;5008103;28;20041;-50
2023/03/25 06:49:45;;;;;;;9.32;2.47;;;7.90;99.90;;;;;;4994295;28;20046;-48
2023/03/25 06:52:11;;;;;;;8.07;2.03;;;7.90;99.90;;;;;;5007642;28;20509;-51
2023/03/25 06:54:37;;;;;;;9.85;2.65;;;7.90;99.90;;;;;;4990820;28;20445;-49
2023/03/25 06:57:03;;;;;;;10.10;3.00;;;8.20;99.90;;;;;;5007587;28;20034;-51
2023/03/25 06:59:29;;;;;;;7.18;2.30;;;8.50;99.90;;;;;;5007137;28;20038;-49
2023/03/25 07:01:55;;;;;;;7.68;2.60;;;8.60;99.90;;;;;;5007807;28;20506;-49
2023/03/25 07:04:21;;;;;;;8.32;2.75;;;8.60;99.90;;;;;;5008265;28;20129;-49
2023/03/25 07:06:47;;;;;;;9.32;3.00;;;8.60;99.90;;;;;;5006501;28;20473;-51
2023/03/25 07:09:12;;;;;;;8.40;2.72;;;8.70;99.90;;;;;;5011025;28;20060;-50
2023/03/25 07:11:38;;;;;;;10.15;3.20;;;8.80;99.90;;;;;;5021301;28;20440;-51
2023/03/25 07:14:04;;;;;;;9.15;2.95;;;;;;;;;;5004471;28;20498;-54
2023/03/25 07:16:30;;;;;;;14.25;3.38;;;9.30;99.90;;;;;;5007359;28;20410;-54
2023/03/25 07:18:57;;;;;;;13.00;3.28;;;9.30;99.90;;;;;;4988616;28;20037;-51
2023/03/25 07:21:23;;;;;;;8.73;3.53;;;9.30;99.90;;;;;;5007593;28;20046;-55
2023/03/25 07:23:49;;;;;;;12.48;3.28;;;9.20;99.90;;;;;;5010133;28;20041;-54
2023/03/25 07:26:15;;;;;;;12.45;3.42;;;9.20;99.90;;;;;;5012377;28;20048;-51
2023/03/25 07:28:41;;;;;;;11.10;3.22;;;9.20;99.90;;;;;;5013552;28;20069;-51
2023/03/25 07:31:08;;;;;;;13.65;3.38;;;9.20;99.90;;;;;;5009921;28;20050;-50
2023/03/25 07:33:34;;;;;;;12.07;3.60;;;9.30;99.90;;;;;;5009187;28;20096;-53
2023/03/25 07:36:00;;;;;;;13.98;3.33;;;9.30;99.90;;;;;;5007154;28;20490;-52
2023/03/25 07:38:25;;;;;;;15.43;4.30;;;9.40;99.90;;;;;;5005623;28;20044;-52
2023/03/25 07:40:51;;;;;;;16.67;3.58;;;9.50;99.90;;;;;;5007057;28;20046;-52
2023/03/25 07:43:17;;;;;;;14.55;3.28;;;9.50;99.90;;;;;;5012130;28;20046;-51
2023/03/25 07:45:42;;;;;;;17.45;3.67;;;9.60;99.90;;;;;;5013645;28;20064;-50
2023/03/25 07:48:13;;;;;;;11.43;3.55;;;9.60;99.90;;;;;;5012146;28;20038;-49
2023/03/25 07:50:39;;;;;;;19.58;4.13;;;9.60;99.90;;;;;;4994323;28;20050;-50
2023/03/25 07:53:05;;;;;;;16.77;3.33;;;9.60;99.90;;;;;;4994314;28;20046;-50
2023/03/25 07:55:31;;;;;;;16.52;3.35;;;9.50;99.90;;;;;;5006820;28;20150;-49
2023/03/25 07:57:59;;;;;;;17.17;4.20;;;9.50;99.90;;;;;;5013236;28;20510;-50
2023/03/25 08:00:26;;;;;;;13.73;2.90;;;9.50;99.90;;;;;;5013162;28;20041;-51
2023/03/25 08:02:51;;;;;;;12.32;2.60;;;9.40;99.90;;;;;;5012580;28;20068;-54
2023/03/25 08:05:20;;;;;;;12.95;3.08;;;9.30;99.90;;;;;;5007436;28;20480;-50
2023/03/25 08:07:47;;;;;;;14.48;3.10;;;9.10;99.90;;;;;;5007970;28;20573;-54
2023/03/25 08:10:15;;;;;;;15.55;3.00;;;9.10;99.90;;;;;;5022482;28;20055;-51
2023/03/25 08:12:42;;;;;;;14.30;3.30;;;9.10;99.90;;;;;;5029938;28;20694;-51
2023/03/25 08:15:09;;;;;;;14.30;3.20;;;9.10;99.90;;;;;;5029333;28;20049;-52
2023/03/25 08:17:34;;;;;;;11.60;2.42;;;9.10;99.90;;;;;;5030566;28;20056;-52
2023/03/25 08:20:03;;;;;;;11.45;2.80;;;9.20;99.90;;;;;;5029985;28;20101;-53
2023/03/25 08:22:29;;;;;;;8.88;2.80;;;9.20;99.90;;;;;;5030720;28;20045;-51
2023/03/25 08:24:54;;;;;;;12.88;2.80;;;9.40;99.90;;;;;;5008750;28;20125;-50
2023/03/25 08:27:20;;;;;;;10.93;3.13;;;9.40;99.90;;;;;;5011495;28;20475;-51
2023/03/25 08:29:53;;;;;;;13.13;2.90;;;9.50;99.90;;;;;;5028859;28;20064;-51
2023/03/25 08:32:19;;;;;;;13.75;3.38;;;9.60;99.90;;;;;;5024523;28;20124;-50
2023/03/25 08:34:45;;;;;;;12.95;3.40;;;9.90;99.90;;;;;;5030454;28;20037;-51
2023/03/25 08:37:11;;;;;;;11.23;2.65;;;9.90;99.90;;;;;;5023010;28;20376;-50
2023/03/25 08:39:38;;;;;;;14.52;3.08;;;10.00;99.90;;;;;;5030028;28;20041;-50
2023/03/25 08:42:06;;;;;;;12.20;2.65;;;10.10;99.90;;;;;;5023008;28;20045;-51
2023/03/25 08:44:31;;;;;;;14.55;3.17;;;10.20;99.90;;;;;;5025937;28;20045;-51
2023/03/25 08:46:57;;;;;;;11.80;3.05;;;10.00;99.90;;;;;;5006593;28;20045;-52
2023/03/25 08:49:23;;;;;;;9.93;3.38;;;10.00;99.90;;;;;;5024099;28;20049;-50
2023/03/25 08:51:49;;;;;;;14.30;3.20;;;9.90;99.90;;;;;;5032164;28;20065;-52
2023/03/25 08:54:14;;;;;;;11.93;3.33;;;9.80;99.90;;;;;;5013507;28;20399;-50
2023/03/25 08:56:40;;;;;;;13.13;3.05;;;9.90;99.90;;;;;;5034436;28;20164;-51
2023/03/25 08:59:06;;;;;;;9.45;2.70;;;9.80;99.90;;;;;;5366535;23;20163;-77
2023/03/25 09:01:32;;;;;;;12.63;3.05;;;9.90;99.90;;;;;;5054372;28;20039;-76
2023/03/25 09:03:58;;;;;;;14.43;2.65;;;10.00;99.90;;;;;;5073436;22;20128;-76
2023/03/25 09:06:24;;;;;;;12.90;3.00;;;10.20;99.90;;;;;;5037039;28;20042;-77
2023/03/25 09:08:51;;;;;;;13.57;3.28;;;;;;;;;;5015861;28;20069;-76
2023/03/25 09:11:17;;;;;;;14.43;3.53;;;10.40;99.90;;;;;;5015633;28;20053;-77
2023/03/25 09:13:43;;;;;;;14.98;3.50;;;10.60;99.90;;;;;;5036058;28;20067;-76
2023/03/25 09:16:09;;;;;;;14.85;3.28;;;10.70;99.90;;;;;;5024228;28;20401;-77
2023/03/25 09:18:35;;;;;;;16.83;3.28;;;10.80;99.90;;;;;;5035491;28;20410;-76
2023/03/25 09:21:02;;;;;;;12.90;3.28;;;10.60;99.90;;;;;;5033259;28;20046;-76
2023/03/25 09:23:28;;;;;;;16.60;3.15;;;10.50;99.90;;;;;;5039178;28;20486;-76
2023/03/25 09:25:55;;;;;;;13.85;3.08;;;10.40;99.90;;;;;;5018817;28;20061;-76
2023/03/25 09:28:21;;;;;;;11.23;2.90;;;10.30;99.90;;;;;;5037631;28;20049;-76
2023/03/25 09:30:46;;;;;;;10.05;2.88;;;10.20;99.90;;;;;;5046437;28;20123;-76
2023/03/25 09:33:13;;;;;;;13.25;2.90;;;10.40;99.90;;;;;;5028785;28;20056;-76
2023/03/25 09:35:40;;;;;;;9.95;2.65;;;10.30;99.90;;;;;;5027250;28;20531;-76
2023/03/25 09:38:06;;;;;;;13.07;2.83;;;10.20;99.90;;;;;;5039576;28;20045;-76
2023/03/25 09:40:33;;;;;;;13.48;3.28;;;10.10;99.90;;;;;;5036492;28;20458;-76
2023/03/25 09:43:20;;;;;;;17.63;3.00;;;9.90;99.90;;;;;;5042051;28;20063;-76
2023/03/25 09:45:47;;;;;;;10.05;2.38;;;10.00;99.90;;;;;;5040285;28;20037;-76
2023/03/25 09:48:18;;;;;;;16.85;3.45;;;9.90;99.90;;;;;;5044176;28;20049;-76
2023/03/25 09:50:45;;;;;;;13.48;3.53;;;9.90;99.90;;;;;;5040111;28;20037;-77
2023/03/25 09:53:16;;;;;;;11.23;3.17;;;10.00;99.90;;;;;;5045078;28;20044;-77
2023/03/25 09:55:43;;;;;;;12.48;2.80;;;10.10;99.90;;;;;;5033820;28;20391;-76
2023/03/25 09:58:36;;;;;;;11.05;2.60;;;10.10;99.90;;;;;;5041882;28;20049;-73
2023/03/25 10:01:21;;;;;;;11.77;2.72;;;10.10;99.90;;;;;;5036452;28;20049;-72
2023/03/25 10:03:54;;;;;;;14.25;2.90;;;10.20;99.90;;;;;;5035276;28;20100;-76
2023/03/25 10:06:25;;;;;;;11.77;2.65;;;10.20;99.90;;;;;;5036627;28;20153;-75
2023/03/25 10:09:09;;;;;;;12.15;2.72;;;10.70;99.90;;;;;;5031066;28;20056;-76
2023/03/25 10:11:57;;;;;;;14.25;3.35;;;11.00;99.90;;;;;;5028973;28;20077;-76
2023/03/25 10:14:49;;;;;;;14.90;3.25;;;11.20;99.90;;;;;;5015828;28;20150;-75
2023/03/25 10:17:19;;;;;;;11.80;2.85;;;11.20;99.90;;;;;;5035462;28;20067;-76
2023/03/25 10:20:12;;;;;;;15.38;3.65;;;11.20;99.90;;;;;;5016890;28;20053;-76
2023/03/25 10:22:38;;;;;;;14.70;3.08;;;11.40;99.90;;;;;;5030044;28;20176;-76
2023/03/25 10:25:08;;;;;;;12.38;2.75;;;11.50;99.90;;;;;;5032834;28;20120;-75
2023/03/25 10:27:40;;;;;;;14.52;2.70;;;11.50;99.90;;;;;;5027834;28;20053;-76
2023/03/25 10:30:09;;;;;;;13.07;2.75;;;11.40;99.90;;;;;;5040310;28;20038;-75
2023/03/25 10:32:55;;;;;;;11.98;3.00;;;11.30;99.90;;;;;;5033719;28;20045;-75
2023/03/25 10:35:23;;;;;;;10.30;2.38;;;11.30;99.90;;;;;;5034534;28;20052;-75
2023/03/25 10:37:51;;;;;;;;;;;11.20;99.90;;;;;;5037762;28;20048;-75
2023/03/25 10:40:25;;;;;;;11.77;2.78;;;11.30;99.90;;;;;;5054260;28;19920;-75
2023/03/25 10:42:57;;;;;;;13.93;3.50;;;11.30;99.90;;;;;;5044989;28;20511;-75
2023/03/25 10:45:23;;;;;;;12.82;3.10;;;11.20;99.90;;;;;;5039316;28;20127;-75
2023/03/25 10:47:53;;;;;;;11.30;2.92;;;10.90;99.90;;;;;;5014103;28;20097;-75
2023/03/25 10:50:20;;;;;;;12.10;2.17;;;;;;;;;;5033400;28;20056;-76
2023/03/25 10:52:50;;;;;;;13.10;2.33;;;10.60;99.90;;;;;;5034535;28;20041;-77
2023/03/25 10:55:36;;;;;;;8.80;2.10;;;10.50;99.90;;;;;;5039396;28;20172;-76
2023/03/25 10:58:02;;;;;;;9.13;2.45;;;10.50;99.90;;;;;;5033282;28;20064;-77
2023/03/25 11:00:29;;;;;;;11.82;2.83;;;10.60;99.90;;;;;;5040689;28;20041;-77
2023/03/25 11:02:55;;;;;;;13.38;3.17;;;10.60;99.90;;;;;;5018911;28;20142;-78
2023/03/25 11:05:26;;;;;;;15.07;3.00;;;11.00;99.90;;;;;;5043919;28;20053;-75
2023/03/25 11:07:54;;;;;;;10.75;2.17;;;11.10;99.90;;;;;;5035766;28;20038;-77
2023/03/25 11:10:28;;;;;;;12.45;2.70;;;11.40;99.90;;;;;;5052288;28;20084;-77
2023/03/25 11:12:57;;;;;;;15.68;3.55;;;11.70;99.90;;;;;;5047525;28;20040;-77
2023/03/25 11:15:24;;;;;;;16.83;3.15;;;12.10;99.90;;;;;;5050427;28;20045;-77
2023/03/25 11:18:13;;;;;;;14.60;3.23;;;12.30;99.90;;;;;;5040004;28;20080;-77
2023/03/25 11:20:45;;;;;;;16.25;3.25;;;12.30;99.90;;;;;;5030827;28;20045;-78
2023/03/25 11:23:38;;;;;;;13.00;3.33;;;12.30;99.90;;;;;;5030410;28;20037;-77
2023/03/25 11:26:29;;;;;;;19.77;3.60;;;12.40;99.90;;;;;;5014364;28;20569;-77
2023/03/25 11:29:12;;;;;;;14.15;3.72;;;12.30;99.90;;;;;;5040126;28;20044;-77
2023/03/25 11:31:39;;;;;;;10.77;2.67;;;12.60;99.90;;;;;;5044994;28;20912;-77
2023/03/25 11:34:11;;;;;;;16.20;3.00;;;13.00;99.90;;;;;;5018559;28;20563;-77
2023/03/25 11:36:51;;;;;;;16.25;3.22;;;13.00;99.90;;;;;;5051960;28;20049;-77
2023/03/25 11:39:25;;;;;;;12.90;3.10;;;13.20;99.90;;;;;;5002979;28;20314;-77
2023/03/25 11:41:51;;;;;;;11.50;2.85;;;13.00;99.90;;;;;;5019673;28;20089;-77
2023/03/25 11:44:29;;;;;;;19.02;3.75;;;13.00;99.90;;;;;;5024395;28;20073;-77
2023/03/25 11:47:04;;;;;;;14.02;2.90;;;12.90;99.90;;;;;;5013386;28;20410;-78
2023/03/25 11:49:35;;;;;;;15.68;3.22;;;12.80;99.90;;;;;;5015110;28;20041;-78
2023/03/25 11:52:05;;;;;;;16.92;2.90;;;12.70;99.90;;;;;;5033696;28;20073;-77
2023/03/25 11:54:34;;;;;;;14.38;3.22;;;12.70;99.90;;;;;;5037331;28;20052;-78
2023/03/25 11:57:04;;;;;;;18.70;3.67;;;12.60;99.90;;;;;;5015413;28;20050;-74
2023/03/25 11:59:41;;;;;;;17.27;4.20;;;12.50;99.90;;;;;;5019282;28;20053;-79
2023/03/25 12:02:30;;;;;;;15.52;3.35;;;12.30;99.90;;;;;;5039792;28;20416;-80
2023/03/25 12:05:12;;;;;;;11.90;2.85;;;12.50;99.90;;;;;;5034147;28;20056;-78
2023/03/25 12:07:46;;;;;;;9.75;2.55;;;12.70;99.90;;;;;;5009215;28;20053;-78
2023/03/25 12:10:26;;;;;;;12.15;3.10;;;12.70;99.90;;;;;;5033256;28;20037;-78
2023/03/25 12:13:17;;;;;;;14.43;3.08;;;12.70;99.90;;;;;;5039748;28;20051;-78
2023/03/25 12:16:06;;;;;;;15.55;3.33;;;12.50;99.90;;;;;;5046475;28;20045;-78
2023/03/25 12:18:47;;;;;;;15.45;3.35;;;12.80;99.90;;;;;;5033811;28;20044;-78
2023/03/25 12:21:21;;;;;;;14.52;2.78;;;12.80;99.90;;;;;;5035166;28;20037;-78
2023/03/25 12:24:05;;;;;;;12.98;3.00;;;12.60;99.90;;;;;;5027005;28;20045;-78
2023/03/25 12:26:47;;;;;;;17.98;3.08;;;12.30;99.90;;;;;;5032432;28;20475;-78
2023/03/25 12:29:36;;;;;;;12.52;2.85;;;12.20;99.90;;;;;;5037634;28;20045;-79
2023/03/25 12:32:15;;;;;;;15.52;3.40;;;12.30;99.90;;;;;;4975519;28;20053;-79
2023/03/25 12:35:18;;;;;;;16.10;3.00;;;12.70;99.90;;;;;;5017241;28;20057;-79
2023/03/25 12:38:05;;;;;;;13.57;2.65;;;12.70;99.90;;;;;;5044647;28;20040;-79
2023/03/25 12:41:08;;;;;;;18.08;3.08;;;12.50;99.90;;;;;;5042274;28;20045;-79
2023/03/25 12:44:03;;;;;;;15.43;3.03;;;12.20;99.90;;;;;;5043784;28;20401;-79
2023/03/25 12:47:00;;;;;;;13.65;3.35;;;12.10;99.90;;;;;;4930029;28;20051;-79
2023/03/25 12:50:05;;;;;;;16.25;2.78;;;11.80;99.90;;;;;;4954013;28;20043;-79
2023/03/25 12:52:55;;;;;;;14.70;2.70;;;11.80;99.90;;;;;;4911987;28;20094;-78
2023/03/25 12:55:37;;;;;;;17.60;3.30;;;11.90;99.90;;;;;;4943760;28;20039;-78
2023/03/25 12:58:37;;;;;;;12.07;2.72;;;12.00;99.90;;;;;;4950450;28;20474;-78
2023/03/25 13:01:27;;;;;;;15.02;3.45;;;12.00;99.90;;;;;;4955615;28;20048;-78
2023/03/25 13:04:25;;;;;;;13.48;3.00;;;12.10;99.90;;;;;;4954932;28;20081;-79
2023/03/25 13:07:09;;;;;;;14.30;2.75;;;12.20;99.90;;;;;;4948680;29;20102;-79
2023/03/25 13:09:53;;;;;;;14.88;3.03;;;12.10;99.90;;;;;;4935129;29;20059;-78